Airfield :
LOGIN :

Register | Disclaimer

   EN    FR    IT 

 










Legend :    VFR   Marginal VFR   IFR   Intensive IFR   Very Intensive IFR
Visi :
Ceiling :
>= 8 km
>= 3000ft
5 to 8 km
1000 to 3000 ft
1500m to 5 km
500 to 1000 ft
800 to 1500m
200 to 500 ft
< 800m
< 200 ft
Symbols :   Thunderstorms  Fog  Heavy snow  Heavy precipitations  Wind > 20 kt
SIGMETs :     Misc.  Thunderstorms  Icing  Turbulence  Mountain Waves  Volcanic Ashes






- Airport Elevation : 1649 ft
- IATA code : HHN


EDFH - Frankfurt-Hahn Rhineland-Palatinate

CURRENT METAR :
  • 031920Z 13004KT 080V180 CAVOK 17/13 Q1002

EXPIRED METARs :
  • 031850Z 15004KT CAVOK 18/12 Q1002
  • 031820Z VRB02KT CAVOK 18/12 Q1002
  • 031750Z 08003KT 040V120 CAVOK 18/13 Q1002
  • 031720Z 06003KT 360V130 CAVOK 18/13 Q1003

TAF TAF EDFH
Valid from the 03 at 18:00 until the 04 at 18:00 UTC


031700Z 0318/0418 33005KT CAVOK
BECMG 0321/0324 23004KT
TEMPO 0400/0405 RA
PROB40
TEMPO 0400/0405 4000 TSRA BKN040CB
BECMG 0405/0408 30006KT
TEMPO 0405/0412 3000 RADZ SCT003 BKN006
PROB40
TEMPO 0412/0418 30015G25KT 4000 TSRA BKN008 BKN014CB



MET'MAP, your aeronautical weather chart ! - Copyright ORBIFLY December 2007 - Disclaimer

ORBIFLY MET'MAP TEAM :

Programming & Development : Alexandra Zaïnal
Concept & original design : Baudouin d'Aumeries
Assistance for programming : Marc-Olivier Méhu
Technical & hardware support : Manuel Goepfert

Contact : metmap@orbifly.com




SOURCES & CREDITS :

   NOAA